Mahanoy Plane, Pennsylvania
Current Conditions -  °F | °C
As of 5:35 AM on Thursday 23 Oct 2014 (Local Time) from KHZL Reporting Station
Overcast Overcast  
Wind Chill:   Ceiling: 700
Heat Index:   Visibility: 10mi
Dew Point:   Wind: 13mph
Humidity: 93%   Direction: 320°NW
Pressure: 29.87"   Gusts: 18mph
Location:  40.79°N, 76.24°W
Report Text: KHZL 230935Z AUTO 32011G16KT 10SM OVC007 07/06 A2987 RMK AO2
Loading
Personal Weather Stations






























Interactive Weather Map
Tropical Storm Tracking
New forecast layout! Learn more

10-Day Weather Forecast

Advertisements
Track Severe Weather on mobile